sensor_id;sensor_type;location;lat;lon;timestamp;P1;durP1;ratioP1;P2;durP2;ratioP2
3843;SDS011;1937;51.444;6.484;2022-10-16T00:01:45;3.97;;;2.73;;
3843;SDS011;1937;51.444;6.484;2022-10-16T00:04:16;4.03;;;3.00;;
3843;SDS011;1937;51.444;6.484;2022-10-16T00:06:44;6.07;;;4.13;;
3843;SDS011;1937;51.444;6.484;2022-10-16T00:09:12;6.33;;;3.60;;
3843;SDS011;1937;51.444;6.484;2022-10-16T00:11:41;3.57;;;2.70;;
3843;SDS011;1937;51.444;6.484;2022-10-16T00:14:10;2.83;;;2.50;;
3843;SDS011;1937;51.444;6.484;2022-10-16T00:16:41;4.53;;;3.00;;
3843;SDS011;1937;51.444;6.484;2022-10-16T00:19:10;3.10;;;2.80;;
3843;SDS011;1937;51.444;6.484;2022-10-16T00:21:40;6.87;;;3.03;;
3843;SDS011;1937;51.444;6.484;2022-10-16T00:24:09;6.03;;;3.00;;
3843;SDS011;1937;51.444;6.484;2022-10-16T00:26:38;4.93;;;3.10;;
3843;SDS011;1937;51.444;6.484;2022-10-16T00:29:07;4.13;;;2.70;;
3843;SDS011;1937;51.444;6.484;2022-10-16T00:31:36;5.20;;;3.23;;
3843;SDS011;1937;51.444;6.484;2022-10-16T00:34:04;4.43;;;3.10;;
3843;SDS011;1937;51.444;6.484;2022-10-16T00:36:32;3.87;;;3.23;;
3843;SDS011;1937;51.444;6.484;2022-10-16T00:39:02;51.10;;;4.10;;
3843;SDS011;1937;51.444;6.484;2022-10-16T00:41:32;9.53;;;2.70;;
3843;SDS011;1937;51.444;6.484;2022-10-16T00:44:01;9.53;;;2.90;;
3843;SDS011;1937;51.444;6.484;2022-10-16T00:46:49;11.13;;;3.30;;
3843;SDS011;1937;51.444;6.484;2022-10-16T00:49:18;2.80;;;2.30;;
3843;SDS011;1937;51.444;6.484;2022-10-16T00:51:50;5.63;;;3.00;;
3843;SDS011;1937;51.444;6.484;2022-10-16T00:54:24;5.80;;;2.60;;
3843;SDS011;1937;51.444;6.484;2022-10-16T00:56:55;6.67;;;2.50;;
3843;SDS011;1937;51.444;6.484;2022-10-16T00:59:26;2.47;;;2.20;;
3843;SDS011;1937;51.444;6.484;2022-10-16T01:01:57;4.10;;;2.60;;
3843;SDS011;1937;51.444;6.484;2022-10-16T01:04:26;12.03;;;3.00;;
3843;SDS011;1937;51.444;6.484;2022-10-16T01:07:03;5.47;;;3.20;;
3843;SDS011;1937;51.444;6.484;2022-10-16T01:09:43;4.53;;;2.83;;
3843;SDS011;1937;51.444;6.484;2022-10-16T01:12:19;6.37;;;2.87;;
3843;SDS011;1937;51.444;6.484;2022-10-16T01:14:59;4.90;;;2.90;;
3843;SDS011;1937;51.444;6.484;2022-10-16T01:17:33;3.33;;;2.60;;
3843;SDS011;1937;51.444;6.484;2022-10-16T01:20:10;4.30;;;2.87;;
3843;SDS011;1937;51.444;6.484;2022-10-16T01:22:48;4.03;;;2.50;;
3843;SDS011;1937;51.444;6.484;2022-10-16T01:25:29;2.63;;;2.23;;
3843;SDS011;1937;51.444;6.484;2022-10-16T01:28:07;3.17;;;2.70;;
3843;SDS011;1937;51.444;6.484;2022-10-16T01:30:38;3.90;;;2.73;;
3843;SDS011;1937;51.444;6.484;2022-10-16T01:33:10;3.60;;;2.20;;
3843;SDS011;1937;51.444;6.484;2022-10-16T01:35:45;3.53;;;2.10;;
3843;SDS011;1937;51.444;6.484;2022-10-16T01:38:19;3.60;;;2.43;;
3843;SDS011;1937;51.444;6.484;2022-10-16T01:40:54;2.30;;;2.10;;
3843;SDS011;1937;51.444;6.484;2022-10-16T01:43:28;3.30;;;3.00;;
3843;SDS011;1937;51.444;6.484;2022-10-16T01:46:01;3.47;;;2.00;;
3843;SDS011;1937;51.444;6.484;2022-10-16T01:48:31;4.50;;;2.43;;
3843;SDS011;1937;51.444;6.484;2022-10-16T01:51:02;2.90;;;2.50;;
3843;SDS011;1937;51.444;6.484;2022-10-16T01:53:35;6.00;;;2.67;;
3843;SDS011;1937;51.444;6.484;2022-10-16T01:56:06;2.53;;;2.33;;
3843;SDS011;1937;51.444;6.484;2022-10-16T01:58:40;2.60;;;1.97;;
3843;SDS011;1937;51.444;6.484;2022-10-16T02:01:12;3.20;;;2.70;;
3843;SDS011;1937;51.444;6.484;2022-10-16T02:03:45;2.97;;;2.23;;
3843;SDS011;1937;51.444;6.484;2022-10-16T02:06:15;3.23;;;2.53;;
3843;SDS011;1937;51.444;6.484;2022-10-16T02:08:44;3.50;;;2.77;;
3843;SDS011;1937;51.444;6.484;2022-10-16T02:11:12;3.20;;;2.73;;
3843;SDS011;1937;51.444;6.484;2022-10-16T02:13:43;3.07;;;2.60;;
3843;SDS011;1937;51.444;6.484;2022-10-16T02:16:16;3.20;;;2.90;;
3843;SDS011;1937;51.444;6.484;2022-10-16T02:18:48;2.70;;;2.20;;
3843;SDS011;1937;51.444;6.484;2022-10-16T02:21:18;2.53;;;2.33;;
3843;SDS011;1937;51.444;6.484;2022-10-16T02:23:50;3.60;;;2.50;;
3843;SDS011;1937;51.444;6.484;2022-10-16T02:26:27;4.40;;;2.40;;
3843;SDS011;1937;51.444;6.484;2022-10-16T02:29:01;2.90;;;2.37;;
3843;SDS011;1937;51.444;6.484;2022-10-16T02:31:34;3.00;;;2.20;;
3843;SDS011;1937;51.444;6.484;2022-10-16T02:34:07;2.57;;;2.23;;
3843;SDS011;1937;51.444;6.484;2022-10-16T02:36:37;3.07;;;2.53;;
3843;SDS011;1937;51.444;6.484;2022-10-16T02:39:06;3.47;;;2.40;;
3843;SDS011;1937;51.444;6.484;2022-10-16T02:41:37;3.20;;;2.00;;
3843;SDS011;1937;51.444;6.484;2022-10-16T02:44:07;2.60;;;2.40;;
3843;SDS011;1937;51.444;6.484;2022-10-16T02:46:35;4.53;;;2.60;;
3843;SDS011;1937;51.444;6.484;2022-10-16T02:49:03;3.27;;;2.20;;
3843;SDS011;1937;51.444;6.484;2022-10-16T02:51:31;2.50;;;2.10;;
3843;SDS011;1937;51.444;6.484;2022-10-16T02:54:00;2.87;;;2.00;;
3843;SDS011;1937;51.444;6.484;2022-10-16T02:56:28;3.20;;;2.60;;
3843;SDS011;1937;51.444;6.484;2022-10-16T02:58:56;3.73;;;2.60;;
3843;SDS011;1937;51.444;6.484;2022-10-16T03:01:26;2.37;;;2.17;;
3843;SDS011;1937;51.444;6.484;2022-10-16T03:03:54;4.00;;;2.57;;
3843;SDS011;1937;51.444;6.484;2022-10-16T03:06:22;4.30;;;2.10;;
3843;SDS011;1937;51.444;6.484;2022-10-16T03:08:51;4.27;;;2.30;;
3843;SDS011;1937;51.444;6.484;2022-10-16T03:11:19;3.30;;;2.70;;
3843;SDS011;1937;51.444;6.484;2022-10-16T03:13:47;3.80;;;2.40;;
3843;SDS011;1937;51.444;6.484;2022-10-16T03:16:15;3.53;;;2.27;;
3843;SDS011;1937;51.444;6.484;2022-10-16T03:18:48;2.50;;;2.30;;
3843;SDS011;1937;51.444;6.484;2022-10-16T03:21:17;2.27;;;2.07;;
3843;SDS011;1937;51.444;6.484;2022-10-16T03:23:45;1.80;;;1.70;;
3843;SDS011;1937;51.444;6.484;2022-10-16T03:26:14;2.43;;;1.87;;
3843;SDS011;1937;51.444;6.484;2022-10-16T03:28:42;3.10;;;2.57;;
3843;SDS011;1937;51.444;6.484;2022-10-16T03:31:13;3.10;;;1.60;;
3843;SDS011;1937;51.444;6.484;2022-10-16T03:33:42;2.70;;;2.17;;
3843;SDS011;1937;51.444;6.484;2022-10-16T03:36:12;2.70;;;2.00;;
3843;SDS011;1937;51.444;6.484;2022-10-16T03:38:40;1.83;;;1.73;;
3843;SDS011;1937;51.444;6.484;2022-10-16T03:41:09;2.33;;;2.10;;
3843;SDS011;1937;51.444;6.484;2022-10-16T03:43:37;2.07;;;1.80;;
3843;SDS011;1937;51.444;6.484;2022-10-16T03:46:06;1.90;;;1.80;;
3843;SDS011;1937;51.444;6.484;2022-10-16T03:48:34;2.10;;;1.90;;
3843;SDS011;1937;51.444;6.484;2022-10-16T03:51:04;2.40;;;2.13;;
3843;SDS011;1937;51.444;6.484;2022-10-16T03:53:34;3.77;;;1.80;;
3843;SDS011;1937;51.444;6.484;2022-10-16T03:56:02;5.13;;;1.70;;
3843;SDS011;1937;51.444;6.484;2022-10-16T03:58:31;1.80;;;1.70;;
3843;SDS011;1937;51.444;6.484;2022-10-16T04:01:00;1.90;;;1.70;;
3843;SDS011;1937;51.444;6.484;2022-10-16T04:03:28;1.93;;;1.60;;
3843;SDS011;1937;51.444;6.484;2022-10-16T04:05:57;3.07;;;1.70;;
3843;SDS011;1937;51.444;6.484;2022-10-16T04:08:25;2.50;;;1.77;;
3843;SDS011;1937;51.444;6.484;2022-10-16T04:10:54;1.90;;;1.70;;
3843;SDS011;1937;51.444;6.484;2022-10-16T04:13:23;1.57;;;1.40;;
3843;SDS011;1937;51.444;6.484;2022-10-16T04:15:52;2.87;;;1.80;;
3843;SDS011;1937;51.444;6.484;2022-10-16T04:18:20;1.60;;;1.50;;
3843;SDS011;1937;51.444;6.484;2022-10-16T04:20:48;8.70;;;2.00;;
3843;SDS011;1937;51.444;6.484;2022-10-16T04:23:17;2.90;;;1.70;;
3843;SDS011;1937;51.444;6.484;2022-10-16T04:25:45;3.27;;;1.90;;
3843;SDS011;1937;51.444;6.484;2022-10-16T04:28:15;2.53;;;2.33;;
3843;SDS011;1937;51.444;6.484;2022-10-16T04:30:43;3.20;;;1.80;;
3843;SDS011;1937;51.444;6.484;2022-10-16T04:33:12;1.70;;;1.60;;
3843;SDS011;1937;51.444;6.484;2022-10-16T04:35:41;2.57;;;1.80;;
3843;SDS011;1937;51.444;6.484;2022-10-16T04:38:09;3.17;;;1.70;;
3843;SDS011;1937;51.444;6.484;2022-10-16T04:40:37;1.50;;;1.40;;
3843;SDS011;1937;51.444;6.484;2022-10-16T04:43:07;1.30;;;1.20;;
3843;SDS011;1937;51.444;6.484;2022-10-16T04:45:39;1.40;;;1.30;;
3843;SDS011;1937;51.444;6.484;2022-10-16T04:48:07;3.17;;;2.43;;
3843;SDS011;1937;51.444;6.484;2022-10-16T04:50:36;2.03;;;1.67;;
3843;SDS011;1937;51.444;6.484;2022-10-16T04:53:04;1.67;;;1.50;;
3843;SDS011;1937;51.444;6.484;2022-10-16T04:55:32;4.07;;;1.50;;
3843;SDS011;1937;51.444;6.484;2022-10-16T04:58:02;2.23;;;1.73;;
3843;SDS011;1937;51.444;6.484;2022-10-16T05:00:31;9.33;;;1.70;;
3843;SDS011;1937;51.444;6.484;2022-10-16T05:03:01;1.73;;;1.60;;
3843;SDS011;1937;51.444;6.484;2022-10-16T05:05:33;2.33;;;1.90;;
3843;SDS011;1937;51.444;6.484;2022-10-16T05:08:02;4.80;;;1.90;;
3843;SDS011;1937;51.444;6.484;2022-10-16T05:10:31;1.97;;;1.60;;
3843;SDS011;1937;51.444;6.484;2022-10-16T05:12:59;2.10;;;1.53;;
3843;SDS011;1937;51.444;6.484;2022-10-16T05:15:28;2.70;;;2.50;;
3843;SDS011;1937;51.444;6.484;2022-10-16T05:17:56;3.20;;;2.90;;
3843;SDS011;1937;51.444;6.484;2022-10-16T05:20:26;2.83;;;2.00;;
3843;SDS011;1937;51.444;6.484;2022-10-16T05:22:54;2.90;;;2.13;;
3843;SDS011;1937;51.444;6.484;2022-10-16T05:25:25;2.03;;;1.93;;
3843;SDS011;1937;51.444;6.484;2022-10-16T05:27:54;1.80;;;1.70;;
3843;SDS011;1937;51.444;6.484;2022-10-16T05:30:25;2.47;;;1.60;;
3843;SDS011;1937;51.444;6.484;2022-10-16T05:32:54;4.10;;;2.17;;
3843;SDS011;1937;51.444;6.484;2022-10-16T05:35:22;2.73;;;2.53;;
3843;SDS011;1937;51.444;6.484;2022-10-16T05:37:52;2.60;;;2.20;;
3843;SDS011;1937;51.444;6.484;2022-10-16T05:40:21;3.43;;;2.00;;
3843;SDS011;1937;51.444;6.484;2022-10-16T05:42:49;3.27;;;2.00;;
3843;SDS011;1937;51.444;6.484;2022-10-16T05:45:20;3.30;;;1.70;;
3843;SDS011;1937;51.444;6.484;2022-10-16T05:47:49;1.70;;;1.60;;
3843;SDS011;1937;51.444;6.484;2022-10-16T05:50:17;2.17;;;1.97;;
3843;SDS011;1937;51.444;6.484;2022-10-16T05:52:45;2.10;;;1.90;;
3843;SDS011;1937;51.444;6.484;2022-10-16T05:55:15;3.80;;;2.10;;
3843;SDS011;1937;51.444;6.484;2022-10-16T05:57:43;7.90;;;4.10;;
3843;SDS011;1937;51.444;6.484;2022-10-16T06:00:12;18.10;;;10.73;;
3843;SDS011;1937;51.444;6.484;2022-10-16T06:02:41;4.10;;;3.70;;
3843;SDS011;1937;51.444;6.484;2022-10-16T06:05:09;5.20;;;3.60;;
3843;SDS011;1937;51.444;6.484;2022-10-16T06:07:37;3.77;;;3.10;;
3843;SDS011;1937;51.444;6.484;2022-10-16T06:10:06;3.80;;;3.20;;
3843;SDS011;1937;51.444;6.484;2022-10-16T06:12:38;3.90;;;2.20;;
3843;SDS011;1937;51.444;6.484;2022-10-16T06:15:06;5.20;;;2.50;;
3843;SDS011;1937;51.444;6.484;2022-10-16T06:17:35;2.57;;;2.37;;
3843;SDS011;1937;51.444;6.484;2022-10-16T06:20:04;5.10;;;2.60;;
3843;SDS011;1937;51.444;6.484;2022-10-16T06:22:34;3.97;;;2.70;;
3843;SDS011;1937;51.444;6.484;2022-10-16T06:25:02;4.33;;;2.00;;
3843;SDS011;1937;51.444;6.484;2022-10-16T06:27:31;5.20;;;2.53;;
3843;SDS011;1937;51.444;6.484;2022-10-16T06:30:02;3.20;;;2.33;;
3843;SDS011;1937;51.444;6.484;2022-10-16T06:32:31;4.00;;;2.43;;
3843;SDS011;1937;51.444;6.484;2022-10-16T06:34:59;2.70;;;2.23;;
3843;SDS011;1937;51.444;6.484;2022-10-16T06:37:28;2.43;;;2.10;;
3843;SDS011;1937;51.444;6.484;2022-10-16T06:39:56;2.70;;;2.50;;
3843;SDS011;1937;51.444;6.484;2022-10-16T06:42:25;4.03;;;2.50;;
3843;SDS011;1937;51.444;6.484;2022-10-16T06:44:53;2.43;;;2.20;;
3843;SDS011;1937;51.444;6.484;2022-10-16T06:47:23;8.10;;;5.07;;
3843;SDS011;1937;51.444;6.484;2022-10-16T06:49:53;5.13;;;3.60;;
3843;SDS011;1937;51.444;6.484;2022-10-16T06:52:21;2.80;;;2.40;;
3843;SDS011;1937;51.444;6.484;2022-10-16T06:54:50;4.43;;;2.70;;
3843;SDS011;1937;51.444;6.484;2022-10-16T06:57:18;2.87;;;2.57;;
3843;SDS011;1937;51.444;6.484;2022-10-16T06:59:50;4.37;;;3.07;;
3843;SDS011;1937;51.444;6.484;2022-10-16T07:02:19;3.00;;;2.80;;
3843;SDS011;1937;51.444;6.484;2022-10-16T07:04:48;12.73;;;3.83;;
3843;SDS011;1937;51.444;6.484;2022-10-16T07:07:17;3.50;;;3.17;;
3843;SDS011;1937;51.444;6.484;2022-10-16T07:09:45;4.80;;;2.90;;
3843;SDS011;1937;51.444;6.484;2022-10-16T07:12:13;4.37;;;2.83;;
3843;SDS011;1937;51.444;6.484;2022-10-16T07:14:42;7.30;;;3.07;;
3843;SDS011;1937;51.444;6.484;2022-10-16T07:17:10;4.00;;;2.70;;
3843;SDS011;1937;51.444;6.484;2022-10-16T07:19:41;3.57;;;2.50;;
3843;SDS011;1937;51.444;6.484;2022-10-16T07:22:12;5.20;;;2.93;;
3843;SDS011;1937;51.444;6.484;2022-10-16T07:24:40;5.30;;;2.70;;
3843;SDS011;1937;51.444;6.484;2022-10-16T07:27:09;3.70;;;2.67;;
3843;SDS011;1937;51.444;6.484;2022-10-16T07:29:38;3.70;;;3.20;;
3843;SDS011;1937;51.444;6.484;2022-10-16T07:32:06;3.47;;;3.17;;
3843;SDS011;1937;51.444;6.484;2022-10-16T07:34:34;5.53;;;2.70;;
3843;SDS011;1937;51.444;6.484;2022-10-16T07:37:02;2.73;;;2.50;;
3843;SDS011;1937;51.444;6.484;2022-10-16T07:39:32;3.93;;;3.40;;
3843;SDS011;1937;51.444;6.484;2022-10-16T07:42:00;6.10;;;2.63;;
3843;SDS011;1937;51.444;6.484;2022-10-16T07:44:28;6.77;;;3.30;;
3843;SDS011;1937;51.444;6.484;2022-10-16T07:46:57;4.27;;;3.00;;
3843;SDS011;1937;51.444;6.484;2022-10-16T07:49:25;3.77;;;2.77;;
3843;SDS011;1937;51.444;6.484;2022-10-16T07:51:53;6.10;;;2.70;;
3843;SDS011;1937;51.444;6.484;2022-10-16T07:54:22;3.20;;;2.83;;
3843;SDS011;1937;51.444;6.484;2022-10-16T07:56:52;5.23;;;2.77;;
3843;SDS011;1937;51.444;6.484;2022-10-16T07:59:20;4.30;;;2.83;;
3843;SDS011;1937;51.444;6.484;2022-10-16T08:01:49;2.60;;;2.40;;
3843;SDS011;1937;51.444;6.484;2022-10-16T08:04:17;3.20;;;2.53;;
3843;SDS011;1937;51.444;6.484;2022-10-16T08:06:46;2.87;;;2.37;;
3843;SDS011;1937;51.444;6.484;2022-10-16T08:09:16;4.00;;;2.40;;
3843;SDS011;1937;51.444;6.484;2022-10-16T08:11:45;5.13;;;3.53;;
3843;SDS011;1937;51.444;6.484;2022-10-16T08:14:14;2.30;;;1.97;;
3843;SDS011;1937;51.444;6.484;2022-10-16T08:16:42;9.73;;;2.00;;
3843;SDS011;1937;51.444;6.484;2022-10-16T08:19:12;5.30;;;1.87;;
3843;SDS011;1937;51.444;6.484;2022-10-16T08:21:41;2.73;;;2.50;;
3843;SDS011;1937;51.444;6.484;2022-10-16T08:24:12;2.93;;;1.80;;
3843;SDS011;1937;51.444;6.484;2022-10-16T08:26:41;3.83;;;2.00;;
3843;SDS011;1937;51.444;6.484;2022-10-16T08:29:09;2.30;;;2.03;;
3843;SDS011;1937;51.444;6.484;2022-10-16T08:31:40;5.47;;;1.93;;
3843;SDS011;1937;51.444;6.484;2022-10-16T08:34:08;5.33;;;1.97;;
3843;SDS011;1937;51.444;6.484;2022-10-16T08:36:37;3.53;;;2.03;;
3843;SDS011;1937;51.444;6.484;2022-10-16T08:39:06;4.97;;;1.97;;
3843;SDS011;1937;51.444;6.484;2022-10-16T08:41:51;4.00;;;2.80;;
3843;SDS011;1937;51.444;6.484;2022-10-16T08:44:41;2.10;;;1.90;;
3843;SDS011;1937;51.444;6.484;2022-10-16T08:47:33;2.77;;;2.10;;
3843;SDS011;1937;51.444;6.484;2022-10-16T08:50:09;5.93;;;1.90;;
3843;SDS011;1937;51.444;6.484;2022-10-16T08:52:41;2.50;;;1.60;;
3843;SDS011;1937;51.444;6.484;2022-10-16T08:55:16;3.37;;;1.47;;
3843;SDS011;1937;51.444;6.484;2022-10-16T08:57:51;1.90;;;1.60;;
3843;SDS011;1937;51.444;6.484;2022-10-16T09:00:20;2.30;;;1.77;;
3843;SDS011;1937;51.444;6.484;2022-10-16T09:02:53;4.67;;;2.10;;
3843;SDS011;1937;51.444;6.484;2022-10-16T09:05:37;3.40;;;1.97;;
3843;SDS011;1937;51.444;6.484;2022-10-16T09:08:15;1.97;;;1.67;;
3843;SDS011;1937;51.444;6.484;2022-10-16T09:10:56;2.70;;;1.70;;
3843;SDS011;1937;51.444;6.484;2022-10-16T09:13:32;3.83;;;1.47;;
3843;SDS011;1937;51.444;6.484;2022-10-16T09:16:12;3.23;;;1.70;;
3843;SDS011;1937;51.444;6.484;2022-10-16T09:18:45;1.63;;;1.53;;
3843;SDS011;1937;51.444;6.484;2022-10-16T09:21:18;2.77;;;1.60;;
3843;SDS011;1937;51.444;6.484;2022-10-16T09:23:49;1.80;;;1.30;;
3843;SDS011;1937;51.444;6.484;2022-10-16T09:26:18;2.80;;;1.73;;
3843;SDS011;1937;51.444;6.484;2022-10-16T09:28:47;8.30;;;1.80;;
3843;SDS011;1937;51.444;6.484;2022-10-16T09:31:18;2.07;;;1.83;;
3843;SDS011;1937;51.444;6.484;2022-10-16T09:33:53;2.63;;;1.70;;
3843;SDS011;1937;51.444;6.484;2022-10-16T09:36:24;5.37;;;1.53;;
3843;SDS011;1937;51.444;6.484;2022-10-16T09:39:03;3.30;;;1.37;;
3843;SDS011;1937;51.444;6.484;2022-10-16T09:41:34;5.20;;;1.30;;
3843;SDS011;1937;51.444;6.484;2022-10-16T09:44:03;4.97;;;1.60;;
3843;SDS011;1937;51.444;6.484;2022-10-16T09:46:44;4.03;;;1.20;;
3843;SDS011;1937;51.444;6.484;2022-10-16T09:49:20;4.50;;;1.50;;
3843;SDS011;1937;51.444;6.484;2022-10-16T09:51:51;1.87;;;1.47;;
3843;SDS011;1937;51.444;6.484;2022-10-16T09:54:29;2.70;;;1.80;;
3843;SDS011;1937;51.444;6.484;2022-10-16T09:57:04;2.90;;;1.60;;
3843;SDS011;1937;51.444;6.484;2022-10-16T09:59:33;4.17;;;1.50;;
3843;SDS011;1937;51.444;6.484;2022-10-16T10:02:11;1.53;;;1.40;;
3843;SDS011;1937;51.444;6.484;2022-10-16T10:04:46;1.27;;;1.17;;
3843;SDS011;1937;51.444;6.484;2022-10-16T10:07:21;1.83;;;1.40;;
3843;SDS011;1937;51.444;6.484;2022-10-16T10:09:53;3.00;;;1.77;;
3843;SDS011;1937;51.444;6.484;2022-10-16T10:12:23;2.00;;;1.43;;
3843;SDS011;1937;51.444;6.484;2022-10-16T10:14:54;2.23;;;1.73;;
3843;SDS011;1937;51.444;6.484;2022-10-16T10:17:25;4.70;;;1.90;;
3843;SDS011;1937;51.444;6.484;2022-10-16T10:19:57;2.47;;;1.20;;
3843;SDS011;1937;51.444;6.484;2022-10-16T10:22:30;2.30;;;1.50;;
3843;SDS011;1937;51.444;6.484;2022-10-16T10:25:20;2.97;;;1.40;;
3843;SDS011;1937;51.444;6.484;2022-10-16T10:31:06;2.07;;;1.40;;
3843;SDS011;1937;51.444;6.484;2022-10-16T10:33:42;6.00;;;1.60;;
3843;SDS011;1937;51.444;6.484;2022-10-16T10:36:19;2.20;;;1.20;;
3843;SDS011;1937;51.444;6.484;2022-10-16T10:39:00;3.90;;;1.40;;
3843;SDS011;1937;51.444;6.484;2022-10-16T10:41:54;2.80;;;1.20;;
3843;SDS011;1937;51.444;6.484;2022-10-16T10:44:51;4.30;;;1.53;;
3843;SDS011;1937;51.444;6.484;2022-10-16T10:47:32;2.80;;;1.60;;
3843;SDS011;1937;51.444;6.484;2022-10-16T10:50:07;2.33;;;1.80;;
3843;SDS011;1937;51.444;6.484;2022-10-16T10:52:49;2.33;;;1.70;;
3843;SDS011;1937;51.444;6.484;2022-10-16T10:55:23;3.60;;;1.47;;
3843;SDS011;1937;51.444;6.484;2022-10-16T10:57:57;7.60;;;1.73;;
3843;SDS011;1937;51.444;6.484;2022-10-16T11:00:40;2.20;;;1.20;;
3843;SDS011;1937;51.444;6.484;2022-10-16T11:03:19;2.87;;;1.37;;
3843;SDS011;1937;51.444;6.484;2022-10-16T11:05:58;1.90;;;1.17;;
3843;SDS011;1937;51.444;6.484;2022-10-16T11:08:33;2.30;;;1.60;;
3843;SDS011;1937;51.444;6.484;2022-10-16T11:11:09;3.27;;;1.20;;
3843;SDS011;1937;51.444;6.484;2022-10-16T11:13:43;4.13;;;1.37;;
3843;SDS011;1937;51.444;6.484;2022-10-16T11:16:20;2.27;;;1.20;;
3843;SDS011;1937;51.444;6.484;2022-10-16T11:18:55;3.57;;;1.50;;
3843;SDS011;1937;51.444;6.484;2022-10-16T11:21:30;1.80;;;1.27;;
3843;SDS011;1937;51.444;6.484;2022-10-16T11:24:09;7.53;;;1.50;;
3843;SDS011;1937;51.444;6.484;2022-10-16T11:26:45;5.13;;;1.40;;
3843;SDS011;1937;51.444;6.484;2022-10-16T11:29:16;5.57;;;1.40;;
3843;SDS011;1937;51.444;6.484;2022-10-16T11:31:50;4.97;;;1.30;;
3843;SDS011;1937;51.444;6.484;2022-10-16T11:34:24;2.13;;;1.30;;
3843;SDS011;1937;51.444;6.484;2022-10-16T11:36:58;1.37;;;1.20;;
3843;SDS011;1937;51.444;6.484;2022-10-16T11:39:36;4.00;;;1.50;;
3843;SDS011;1937;51.444;6.484;2022-10-16T11:42:08;2.33;;;1.83;;
3843;SDS011;1937;51.444;6.484;2022-10-16T11:44:44;4.53;;;1.20;;
3843;SDS011;1937;51.444;6.484;2022-10-16T11:47:27;1.83;;;1.40;;
3843;SDS011;1937;51.444;6.484;2022-10-16T11:50:01;5.03;;;1.40;;
3843;SDS011;1937;51.444;6.484;2022-10-16T11:52:36;2.80;;;1.67;;
3843;SDS011;1937;51.444;6.484;2022-10-16T11:55:13;4.50;;;1.43;;
3843;SDS011;1937;51.444;6.484;2022-10-16T11:57:47;2.90;;;1.30;;
3843;SDS011;1937;51.444;6.484;2022-10-16T12:00:20;3.00;;;1.97;;
3843;SDS011;1937;51.444;6.484;2022-10-16T12:02:54;4.40;;;1.47;;
3843;SDS011;1937;51.444;6.484;2022-10-16T12:05:31;2.70;;;1.20;;
3843;SDS011;1937;51.444;6.484;2022-10-16T12:08:09;2.60;;;1.70;;
3843;SDS011;1937;51.444;6.484;2022-10-16T12:10:42;2.17;;;1.07;;
3843;SDS011;1937;51.444;6.484;2022-10-16T12:13:29;1.23;;;1.13;;
3843;SDS011;1937;51.444;6.484;2022-10-16T12:16:04;1.57;;;1.10;;
3843;SDS011;1937;51.444;6.484;2022-10-16T12:18:32;2.60;;;1.50;;
3843;SDS011;1937;51.444;6.484;2022-10-16T12:21:01;2.70;;;1.10;;
3843;SDS011;1937;51.444;6.484;2022-10-16T12:23:32;1.40;;;1.30;;
3843;SDS011;1937;51.444;6.484;2022-10-16T12:26:05;3.33;;;1.30;;
3843;SDS011;1937;51.444;6.484;2022-10-16T12:28:33;2.03;;;1.50;;
3843;SDS011;1937;51.444;6.484;2022-10-16T12:31:03;3.33;;;1.40;;
3843;SDS011;1937;51.444;6.484;2022-10-16T12:33:35;1.43;;;1.30;;
3843;SDS011;1937;51.444;6.484;2022-10-16T12:36:08;2.30;;;1.07;;
3843;SDS011;1937;51.444;6.484;2022-10-16T12:38:53;2.47;;;1.30;;
3843;SDS011;1937;51.444;6.484;2022-10-16T12:41:26;1.33;;;1.23;;
3843;SDS011;1937;51.444;6.484;2022-10-16T12:43:56;3.57;;;1.63;;
3843;SDS011;1937;51.444;6.484;2022-10-16T12:46:37;2.03;;;1.10;;
3843;SDS011;1937;51.444;6.484;2022-10-16T12:49:14;2.20;;;1.20;;
3843;SDS011;1937;51.444;6.484;2022-10-16T12:51:49;3.03;;;1.40;;
3843;SDS011;1937;51.444;6.484;2022-10-16T12:54:19;3.67;;;1.23;;
3843;SDS011;1937;51.444;6.484;2022-10-16T12:57:05;2.00;;;1.20;;
3843;SDS011;1937;51.444;6.484;2022-10-16T12:59:46;2.90;;;1.20;;
3843;SDS011;1937;51.444;6.484;2022-10-16T13:02:25;3.17;;;1.30;;
3843;SDS011;1937;51.444;6.484;2022-10-16T13:05:26;1.83;;;1.30;;
3843;SDS011;1937;51.444;6.484;2022-10-16T13:08:15;3.13;;;1.50;;
3843;SDS011;1937;51.444;6.484;2022-10-16T13:10:55;3.07;;;1.30;;
3843;SDS011;1937;51.444;6.484;2022-10-16T13:16:23;1.83;;;1.53;;
3843;SDS011;1937;51.444;6.484;2022-10-16T13:19:04;2.20;;;1.20;;
3843;SDS011;1937;51.444;6.484;2022-10-16T13:21:46;2.33;;;2.23;;
3843;SDS011;1937;51.444;6.484;2022-10-16T13:24:26;2.07;;;1.53;;
3843;SDS011;1937;51.444;6.484;2022-10-16T13:27:14;3.63;;;1.20;;
3843;SDS011;1937;51.444;6.484;2022-10-16T13:29:53;1.80;;;1.20;;
3843;SDS011;1937;51.444;6.484;2022-10-16T13:32:27;3.40;;;1.20;;
3843;SDS011;1937;51.444;6.484;2022-10-16T13:34:56;3.70;;;1.37;;
3843;SDS011;1937;51.444;6.484;2022-10-16T13:37:26;1.90;;;1.00;;
3843;SDS011;1937;51.444;6.484;2022-10-16T13:40:09;2.37;;;1.30;;
3843;SDS011;1937;51.444;6.484;2022-10-16T13:42:44;3.40;;;1.60;;
3843;SDS011;1937;51.444;6.484;2022-10-16T13:45:18;2.60;;;1.03;;
3843;SDS011;1937;51.444;6.484;2022-10-16T13:47:49;4.27;;;1.77;;
3843;SDS011;1937;51.444;6.484;2022-10-16T13:50:27;2.17;;;1.50;;
3843;SDS011;1937;51.444;6.484;2022-10-16T13:53:02;2.20;;;1.20;;
3843;SDS011;1937;51.444;6.484;2022-10-16T13:55:32;2.77;;;1.10;;
3843;SDS011;1937;51.444;6.484;2022-10-16T13:58:07;1.57;;;1.20;;
3843;SDS011;1937;51.444;6.484;2022-10-16T14:00:39;3.27;;;1.50;;
3843;SDS011;1937;51.444;6.484;2022-10-16T14:03:19;4.10;;;1.33;;
3843;SDS011;1937;51.444;6.484;2022-10-16T14:05:49;2.67;;;1.30;;
3843;SDS011;1937;51.444;6.484;2022-10-16T14:08:19;2.83;;;1.40;;
3843;SDS011;1937;51.444;6.484;2022-10-16T14:10:49;2.93;;;1.20;;
3843;SDS011;1937;51.444;6.484;2022-10-16T14:13:27;1.70;;;1.30;;
3843;SDS011;1937;51.444;6.484;2022-10-16T14:15:58;4.57;;;1.10;;
3843;SDS011;1937;51.444;6.484;2022-10-16T14:18:31;5.40;;;1.57;;
3843;SDS011;1937;51.444;6.484;2022-10-16T14:21:05;2.60;;;1.20;;
3843;SDS011;1937;51.444;6.484;2022-10-16T14:23:39;2.57;;;1.37;;
3843;SDS011;1937;51.444;6.484;2022-10-16T14:26:13;1.47;;;1.30;;
3843;SDS011;1937;51.444;6.484;2022-10-16T14:28:43;4.43;;;1.60;;
3843;SDS011;1937;51.444;6.484;2022-10-16T14:31:30;4.77;;;1.40;;
3843;SDS011;1937;51.444;6.484;2022-10-16T14:34:00;3.00;;;1.20;;
3843;SDS011;1937;51.444;6.484;2022-10-16T14:36:29;3.83;;;1.53;;
3843;SDS011;1937;51.444;6.484;2022-10-16T14:39:02;2.67;;;1.43;;
3843;SDS011;1937;51.444;6.484;2022-10-16T14:41:43;2.20;;;1.00;;
3843;SDS011;1937;51.444;6.484;2022-10-16T14:44:13;1.63;;;1.00;;
3843;SDS011;1937;51.444;6.484;2022-10-16T14:46:46;2.37;;;1.23;;
3843;SDS011;1937;51.444;6.484;2022-10-16T14:49:16;4.87;;;1.43;;
3843;SDS011;1937;51.444;6.484;2022-10-16T14:51:48;4.93;;;1.77;;
3843;SDS011;1937;51.444;6.484;2022-10-16T14:54:18;2.60;;;1.30;;
3843;SDS011;1937;51.444;6.484;2022-10-16T14:56:48;5.03;;;1.50;;
3843;SDS011;1937;51.444;6.484;2022-10-16T14:59:19;8.03;;;1.57;;
3843;SDS011;1937;51.444;6.484;2022-10-16T15:01:53;2.23;;;1.23;;
3843;SDS011;1937;51.444;6.484;2022-10-16T15:04:22;3.77;;;2.60;;
3843;SDS011;1937;51.444;6.484;2022-10-16T15:06:50;3.17;;;1.73;;
3843;SDS011;1937;51.444;6.484;2022-10-16T15:09:18;2.33;;;1.27;;
3843;SDS011;1937;51.444;6.484;2022-10-16T15:11:47;2.33;;;1.63;;
3843;SDS011;1937;51.444;6.484;2022-10-16T15:14:15;2.57;;;1.77;;
3843;SDS011;1937;51.444;6.484;2022-10-16T15:16:43;3.00;;;1.57;;
3843;SDS011;1937;51.444;6.484;2022-10-16T15:19:13;3.87;;;1.70;;
3843;SDS011;1937;51.444;6.484;2022-10-16T15:21:41;7.53;;;3.47;;
3843;SDS011;1937;51.444;6.484;2022-10-16T15:24:11;5.33;;;3.13;;
3843;SDS011;1937;51.444;6.484;2022-10-16T15:26:40;3.70;;;2.13;;
3843;SDS011;1937;51.444;6.484;2022-10-16T15:29:10;6.70;;;3.90;;
3843;SDS011;1937;51.444;6.484;2022-10-16T15:31:40;1.80;;;1.30;;
3843;SDS011;1937;51.444;6.484;2022-10-16T15:34:08;2.53;;;1.50;;
3843;SDS011;1937;51.444;6.484;2022-10-16T15:36:39;2.07;;;1.50;;
3843;SDS011;1937;51.444;6.484;2022-10-16T15:39:11;2.80;;;1.40;;
3843;SDS011;1937;51.444;6.484;2022-10-16T15:41:41;2.37;;;2.13;;
3843;SDS011;1937;51.444;6.484;2022-10-16T15:44:15;4.47;;;1.53;;
3843;SDS011;1937;51.444;6.484;2022-10-16T15:46:43;6.90;;;2.20;;
3843;SDS011;1937;51.444;6.484;2022-10-16T15:49:12;3.33;;;1.77;;
3843;SDS011;1937;51.444;6.484;2022-10-16T15:51:42;2.20;;;1.37;;